sensor_id;sensor_type;location;lat;lon;timestamp;P1;durP1;ratioP1;P2;durP2;ratioP2
7410;SDS011;3747;48.628;9.058;2023-04-03T00:00:05;9.17;;;7.87;;
7410;SDS011;3747;48.628;9.058;2023-04-03T00:02:33;5.37;;;3.53;;
7410;SDS011;3747;48.628;9.058;2023-04-03T00:05:00;4.80;;;4.23;;
7410;SDS011;3747;48.628;9.058;2023-04-03T00:07:27;6.07;;;5.00;;
7410;SDS011;3747;48.628;9.058;2023-04-03T00:09:53;5.67;;;4.90;;
7410;SDS011;3747;48.628;9.058;2023-04-03T00:12:20;5.67;;;4.43;;
7410;SDS011;3747;48.628;9.058;2023-04-03T00:14:47;4.00;;;3.63;;
7410;SDS011;3747;48.628;9.058;2023-04-03T00:17:15;5.00;;;4.60;;
7410;SDS011;3747;48.628;9.058;2023-04-03T00:19:41;6.33;;;4.13;;
7410;SDS011;3747;48.628;9.058;2023-04-03T00:22:08;3.70;;;3.23;;
7410;SDS011;3747;48.628;9.058;2023-04-03T00:24:35;4.20;;;3.43;;
7410;SDS011;3747;48.628;9.058;2023-04-03T00:27:01;6.00;;;3.80;;
7410;SDS011;3747;48.628;9.058;2023-04-03T00:29:28;5.10;;;3.93;;
7410;SDS011;3747;48.628;9.058;2023-04-03T00:31:55;6.97;;;4.07;;
7410;SDS011;3747;48.628;9.058;2023-04-03T00:34:23;3.73;;;3.43;;
7410;SDS011;3747;48.628;9.058;2023-04-03T00:36:49;4.57;;;3.60;;
7410;SDS011;3747;48.628;9.058;2023-04-03T00:39:16;4.47;;;3.73;;
7410;SDS011;3747;48.628;9.058;2023-04-03T00:41:43;4.17;;;3.30;;
7410;SDS011;3747;48.628;9.058;2023-04-03T00:44:20;5.13;;;3.77;;
7410;SDS011;3747;48.628;9.058;2023-04-03T00:46:47;3.67;;;3.37;;
7410;SDS011;3747;48.628;9.058;2023-04-03T00:49:14;5.73;;;3.37;;
7410;SDS011;3747;48.628;9.058;2023-04-03T00:51:42;3.73;;;3.43;;
7410;SDS011;3747;48.628;9.058;2023-04-03T00:54:09;3.37;;;3.07;;
7410;SDS011;3747;48.628;9.058;2023-04-03T00:56:36;3.47;;;3.17;;
7410;SDS011;3747;48.628;9.058;2023-04-03T00:59:05;3.80;;;3.33;;
7410;SDS011;3747;48.628;9.058;2023-04-03T01:01:34;3.93;;;3.33;;
7410;SDS011;3747;48.628;9.058;2023-04-03T01:04:01;3.93;;;3.10;;
7410;SDS011;3747;48.628;9.058;2023-04-03T01:06:29;3.60;;;3.30;;
7410;SDS011;3747;48.628;9.058;2023-04-03T01:09:00;4.17;;;3.83;;
7410;SDS011;3747;48.628;9.058;2023-04-03T01:11:27;5.17;;;4.50;;
7410;SDS011;3747;48.628;9.058;2023-04-03T01:13:54;8.57;;;5.73;;
7410;SDS011;3747;48.628;9.058;2023-04-03T01:16:21;8.20;;;5.67;;
7410;SDS011;3747;48.628;9.058;2023-04-03T01:18:48;7.07;;;6.17;;
7410;SDS011;3747;48.628;9.058;2023-04-03T01:21:28;6.07;;;4.53;;
7410;SDS011;3747;48.628;9.058;2023-04-03T01:24:25;4.13;;;3.60;;
7410;SDS011;3747;48.628;9.058;2023-04-03T01:26:58;3.93;;;3.63;;
7410;SDS011;3747;48.628;9.058;2023-04-03T01:29:25;4.60;;;3.27;;
7410;SDS011;3747;48.628;9.058;2023-04-03T01:31:53;3.83;;;3.40;;
7410;SDS011;3747;48.628;9.058;2023-04-03T01:34:22;4.37;;;3.50;;
7410;SDS011;3747;48.628;9.058;2023-04-03T01:36:49;3.87;;;3.50;;
7410;SDS011;3747;48.628;9.058;2023-04-03T01:39:17;3.60;;;3.30;;
7410;SDS011;3747;48.628;9.058;2023-04-03T01:41:44;4.10;;;3.60;;
7410;SDS011;3747;48.628;9.058;2023-04-03T01:44:11;4.50;;;4.17;;
7410;SDS011;3747;48.628;9.058;2023-04-03T01:46:38;3.83;;;3.50;;
7410;SDS011;3747;48.628;9.058;2023-04-03T01:49:07;5.37;;;3.37;;
7410;SDS011;3747;48.628;9.058;2023-04-03T01:51:34;3.60;;;3.33;;
7410;SDS011;3747;48.628;9.058;2023-04-03T01:54:01;5.67;;;3.80;;
7410;SDS011;3747;48.628;9.058;2023-04-03T01:56:27;4.37;;;3.20;;
7410;SDS011;3747;48.628;9.058;2023-04-03T01:58:54;5.30;;;3.30;;
7410;SDS011;3747;48.628;9.058;2023-04-03T02:01:21;4.20;;;3.20;;
7410;SDS011;3747;48.628;9.058;2023-04-03T02:03:48;3.63;;;3.23;;
7410;SDS011;3747;48.628;9.058;2023-04-03T02:06:16;3.70;;;3.37;;
7410;SDS011;3747;48.628;9.058;2023-04-03T02:08:43;4.30;;;3.73;;
7410;SDS011;3747;48.628;9.058;2023-04-03T02:11:09;3.40;;;3.10;;
7410;SDS011;3747;48.628;9.058;2023-04-03T02:13:36;4.60;;;3.90;;
7410;SDS011;3747;48.628;9.058;2023-04-03T02:16:06;3.70;;;3.40;;
7410;SDS011;3747;48.628;9.058;2023-04-03T02:18:34;5.90;;;3.53;;
7410;SDS011;3747;48.628;9.058;2023-04-03T02:21:01;4.37;;;3.30;;
7410;SDS011;3747;48.628;9.058;2023-04-03T02:23:29;3.63;;;3.17;;
7410;SDS011;3747;48.628;9.058;2023-04-03T02:26:02;6.77;;;3.37;;
7410;SDS011;3747;48.628;9.058;2023-04-03T02:28:30;3.73;;;3.30;;
7410;SDS011;3747;48.628;9.058;2023-04-03T02:30:57;3.23;;;2.80;;
7410;SDS011;3747;48.628;9.058;2023-04-03T02:33:24;3.40;;;3.10;;
7410;SDS011;3747;48.628;9.058;2023-04-03T02:35:52;4.00;;;3.10;;
7410;SDS011;3747;48.628;9.058;2023-04-03T02:38:19;3.87;;;3.47;;
7410;SDS011;3747;48.628;9.058;2023-04-03T02:40:47;5.50;;;3.40;;
7410;SDS011;3747;48.628;9.058;2023-04-03T02:43:14;4.17;;;3.20;;
7410;SDS011;3747;48.628;9.058;2023-04-03T02:45:40;5.43;;;3.53;;
7410;SDS011;3747;48.628;9.058;2023-04-03T02:48:07;8.60;;;5.07;;
7410;SDS011;3747;48.628;9.058;2023-04-03T02:50:34;13.33;;;8.33;;
7410;SDS011;3747;48.628;9.058;2023-04-03T02:53:01;9.07;;;6.37;;
7410;SDS011;3747;48.628;9.058;2023-04-03T02:55:27;4.13;;;3.07;;
7410;SDS011;3747;48.628;9.058;2023-04-03T02:57:55;4.10;;;3.53;;
7410;SDS011;3747;48.628;9.058;2023-04-03T03:00:22;5.47;;;4.77;;
7410;SDS011;3747;48.628;9.058;2023-04-03T03:02:49;7.73;;;4.70;;
7410;SDS011;3747;48.628;9.058;2023-04-03T03:05:15;7.03;;;5.40;;
7410;SDS011;3747;48.628;9.058;2023-04-03T03:07:43;4.37;;;3.87;;
7410;SDS011;3747;48.628;9.058;2023-04-03T03:10:09;4.23;;;3.47;;
7410;SDS011;3747;48.628;9.058;2023-04-03T03:12:36;4.17;;;3.50;;
7410;SDS011;3747;48.628;9.058;2023-04-03T03:15:05;3.83;;;3.53;;
7410;SDS011;3747;48.628;9.058;2023-04-03T03:17:32;3.90;;;3.47;;
7410;SDS011;3747;48.628;9.058;2023-04-03T03:19:59;9.23;;;4.13;;
7410;SDS011;3747;48.628;9.058;2023-04-03T03:22:26;5.37;;;4.27;;
7410;SDS011;3747;48.628;9.058;2023-04-03T03:24:53;5.23;;;4.27;;
7410;SDS011;3747;48.628;9.058;2023-04-03T03:27:20;4.47;;;3.97;;
7410;SDS011;3747;48.628;9.058;2023-04-03T03:29:47;5.27;;;4.77;;
7410;SDS011;3747;48.628;9.058;2023-04-03T03:32:15;4.33;;;3.20;;
7410;SDS011;3747;48.628;9.058;2023-04-03T03:34:42;6.70;;;3.80;;
7410;SDS011;3747;48.628;9.058;2023-04-03T03:37:08;3.73;;;3.43;;
7410;SDS011;3747;48.628;9.058;2023-04-03T03:39:35;3.40;;;3.03;;
7410;SDS011;3747;48.628;9.058;2023-04-03T03:42:02;4.13;;;3.53;;
7410;SDS011;3747;48.628;9.058;2023-04-03T03:44:29;4.10;;;3.57;;
7410;SDS011;3747;48.628;9.058;2023-04-03T03:46:55;6.80;;;3.90;;
7410;SDS011;3747;48.628;9.058;2023-04-03T03:49:23;4.60;;;4.20;;
7410;SDS011;3747;48.628;9.058;2023-04-03T03:51:50;3.57;;;3.27;;
7410;SDS011;3747;48.628;9.058;2023-04-03T03:54:17;3.10;;;2.80;;
7410;SDS011;3747;48.628;9.058;2023-04-03T03:56:44;4.27;;;3.80;;
7410;SDS011;3747;48.628;9.058;2023-04-03T03:59:11;4.63;;;3.30;;
7410;SDS011;3747;48.628;9.058;2023-04-03T04:01:38;3.23;;;2.70;;
7410;SDS011;3747;48.628;9.058;2023-04-03T04:04:04;3.93;;;3.57;;
7410;SDS011;3747;48.628;9.058;2023-04-03T04:06:32;3.40;;;3.10;;
7410;SDS011;3747;48.628;9.058;2023-04-03T04:08:59;3.33;;;2.53;;
7410;SDS011;3747;48.628;9.058;2023-04-03T04:11:26;4.13;;;3.03;;
7410;SDS011;3747;48.628;9.058;2023-04-03T04:13:53;3.80;;;2.93;;
7410;SDS011;3747;48.628;9.058;2023-04-03T04:16:19;3.40;;;3.10;;
7410;SDS011;3747;48.628;9.058;2023-04-03T04:18:46;3.90;;;3.30;;
7410;SDS011;3747;48.628;9.058;2023-04-03T04:21:13;3.17;;;2.93;;
7410;SDS011;3747;48.628;9.058;2023-04-03T04:23:41;3.07;;;2.77;;
7410;SDS011;3747;48.628;9.058;2023-04-03T04:26:08;4.27;;;3.20;;
7410;SDS011;3747;48.628;9.058;2023-04-03T04:28:34;4.10;;;2.97;;
7410;SDS011;3747;48.628;9.058;2023-04-03T04:31:01;2.60;;;2.33;;
7410;SDS011;3747;48.628;9.058;2023-04-03T04:33:28;3.00;;;2.70;;
7410;SDS011;3747;48.628;9.058;2023-04-03T04:35:55;3.93;;;2.87;;
7410;SDS011;3747;48.628;9.058;2023-04-03T04:38:22;3.40;;;3.13;;
7410;SDS011;3747;48.628;9.058;2023-04-03T04:40:50;3.43;;;2.93;;
7410;SDS011;3747;48.628;9.058;2023-04-03T04:43:16;3.47;;;2.80;;
7410;SDS011;3747;48.628;9.058;2023-04-03T04:45:43;3.93;;;2.60;;
7410;SDS011;3747;48.628;9.058;2023-04-03T04:48:10;3.00;;;2.70;;
7410;SDS011;3747;48.628;9.058;2023-04-03T04:50:37;4.27;;;2.90;;
7410;SDS011;3747;48.628;9.058;2023-04-03T04:53:03;3.60;;;2.60;;
7410;SDS011;3747;48.628;9.058;2023-04-03T04:55:30;3.00;;;2.70;;
7410;SDS011;3747;48.628;9.058;2023-04-03T04:57:58;3.10;;;2.80;;
7410;SDS011;3747;48.628;9.058;2023-04-03T05:00:25;5.47;;;3.20;;
7410;SDS011;3747;48.628;9.058;2023-04-03T05:02:52;3.97;;;3.40;;
7410;SDS011;3747;48.628;9.058;2023-04-03T05:05:18;4.87;;;3.20;;
7410;SDS011;3747;48.628;9.058;2023-04-03T05:07:45;3.80;;;2.90;;
7410;SDS011;3747;48.628;9.058;2023-04-03T05:10:12;3.97;;;3.00;;
7410;SDS011;3747;48.628;9.058;2023-04-03T05:12:38;2.83;;;2.63;;
7410;SDS011;3747;48.628;9.058;2023-04-03T05:15:07;4.13;;;2.70;;
7410;SDS011;3747;48.628;9.058;2023-04-03T05:17:35;3.20;;;2.80;;
7410;SDS011;3747;48.628;9.058;2023-04-03T05:20:01;3.50;;;3.00;;
7410;SDS011;3747;48.628;9.058;2023-04-03T05:22:29;3.30;;;3.00;;
7410;SDS011;3747;48.628;9.058;2023-04-03T05:24:56;3.03;;;2.50;;
7410;SDS011;3747;48.628;9.058;2023-04-03T05:27:23;9.23;;;3.03;;
7410;SDS011;3747;48.628;9.058;2023-04-03T05:29:50;2.33;;;2.13;;
7410;SDS011;3747;48.628;9.058;2023-04-03T05:32:19;2.60;;;2.40;;
7410;SDS011;3747;48.628;9.058;2023-04-03T05:34:46;2.03;;;1.70;;
7410;SDS011;3747;48.628;9.058;2023-04-03T05:37:13;2.53;;;2.30;;
7410;SDS011;3747;48.628;9.058;2023-04-03T05:39:39;2.53;;;1.90;;
7410;SDS011;3747;48.628;9.058;2023-04-03T05:42:06;2.97;;;2.20;;
7410;SDS011;3747;48.628;9.058;2023-04-03T05:44:33;2.23;;;2.03;;
7410;SDS011;3747;48.628;9.058;2023-04-03T05:47:00;2.17;;;2.07;;
7410;SDS011;3747;48.628;9.058;2023-04-03T05:49:29;2.43;;;2.33;;
7410;SDS011;3747;48.628;9.058;2023-04-03T05:51:56;2.40;;;2.20;;
7410;SDS011;3747;48.628;9.058;2023-04-03T05:54:23;2.73;;;1.90;;
7410;SDS011;3747;48.628;9.058;2023-04-03T05:56:51;1.87;;;1.77;;
7410;SDS011;3747;48.628;9.058;2023-04-03T05:59:18;2.10;;;1.90;;
7410;SDS011;3747;48.628;9.058;2023-04-03T06:01:46;3.03;;;2.03;;
7410;SDS011;3747;48.628;9.058;2023-04-03T06:04:13;1.80;;;1.70;;
7410;SDS011;3747;48.628;9.058;2023-04-03T06:06:45;2.93;;;2.13;;
7410;SDS011;3747;48.628;9.058;2023-04-03T06:09:14;2.03;;;1.83;;
7410;SDS011;3747;48.628;9.058;2023-04-03T06:11:42;2.30;;;2.10;;
7410;SDS011;3747;48.628;9.058;2023-04-03T06:14:09;2.80;;;1.97;;
7410;SDS011;3747;48.628;9.058;2023-04-03T06:16:36;2.73;;;2.10;;
7410;SDS011;3747;48.628;9.058;2023-04-03T06:19:04;2.33;;;2.13;;
7410;SDS011;3747;48.628;9.058;2023-04-03T06:21:32;2.83;;;1.67;;
7410;SDS011;3747;48.628;9.058;2023-04-03T06:24:00;2.97;;;2.70;;
7410;SDS011;3747;48.628;9.058;2023-04-03T06:26:27;3.30;;;2.37;;
7410;SDS011;3747;48.628;9.058;2023-04-03T06:28:53;3.13;;;2.20;;
7410;SDS011;3747;48.628;9.058;2023-04-03T06:31:20;3.13;;;1.87;;
7410;SDS011;3747;48.628;9.058;2023-04-03T06:33:47;2.13;;;1.90;;
7410;SDS011;3747;48.628;9.058;2023-04-03T06:36:14;3.13;;;1.83;;
7410;SDS011;3747;48.628;9.058;2023-04-03T06:38:44;3.13;;;2.83;;
7410;SDS011;3747;48.628;9.058;2023-04-03T06:41:13;2.93;;;1.90;;
7410;SDS011;3747;48.628;9.058;2023-04-03T06:43:39;4.20;;;2.30;;
7410;SDS011;3747;48.628;9.058;2023-04-03T06:46:06;3.20;;;2.30;;
7410;SDS011;3747;48.628;9.058;2023-04-03T06:48:37;2.57;;;1.77;;
7410;SDS011;3747;48.628;9.058;2023-04-03T06:51:04;3.23;;;2.33;;
7410;SDS011;3747;48.628;9.058;2023-04-03T06:53:30;2.43;;;2.23;;
7410;SDS011;3747;48.628;9.058;2023-04-03T06:55:57;2.43;;;2.20;;
7410;SDS011;3747;48.628;9.058;2023-04-03T06:58:25;2.63;;;2.17;;
7410;SDS011;3747;48.628;9.058;2023-04-03T07:00:52;2.43;;;2.23;;
7410;SDS011;3747;48.628;9.058;2023-04-03T07:03:19;4.27;;;2.13;;
7410;SDS011;3747;48.628;9.058;2023-04-03T07:05:46;2.27;;;2.07;;
7410;SDS011;3747;48.628;9.058;2023-04-03T07:08:13;1.77;;;1.67;;
7410;SDS011;3747;48.628;9.058;2023-04-03T07:10:40;3.33;;;2.53;;
7410;SDS011;3747;48.628;9.058;2023-04-03T07:13:08;2.57;;;2.20;;
7410;SDS011;3747;48.628;9.058;2023-04-03T07:15:36;2.00;;;1.80;;
7410;SDS011;3747;48.628;9.058;2023-04-03T07:18:02;4.40;;;2.07;;
7410;SDS011;3747;48.628;9.058;2023-04-03T07:20:31;2.50;;;2.20;;
7410;SDS011;3747;48.628;9.058;2023-04-03T07:22:57;1.97;;;1.87;;
7410;SDS011;3747;48.628;9.058;2023-04-03T07:25:24;2.90;;;1.60;;
7410;SDS011;3747;48.628;9.058;2023-04-03T07:27:51;2.20;;;2.10;;
7410;SDS011;3747;48.628;9.058;2023-04-03T07:30:19;2.47;;;1.90;;
7410;SDS011;3747;48.628;9.058;2023-04-03T07:32:47;2.20;;;1.87;;
7410;SDS011;3747;48.628;9.058;2023-04-03T07:35:14;2.37;;;2.13;;
7410;SDS011;3747;48.628;9.058;2023-04-03T07:37:41;1.97;;;1.87;;
7410;SDS011;3747;48.628;9.058;2023-04-03T07:40:09;3.30;;;2.30;;
7410;SDS011;3747;48.628;9.058;2023-04-03T07:42:36;2.30;;;1.83;;
7410;SDS011;3747;48.628;9.058;2023-04-03T07:45:03;3.30;;;2.10;;
7410;SDS011;3747;48.628;9.058;2023-04-03T07:47:30;3.40;;;1.90;;
7410;SDS011;3747;48.628;9.058;2023-04-03T07:49:58;2.67;;;1.80;;
7410;SDS011;3747;48.628;9.058;2023-04-03T07:52:25;4.13;;;2.00;;
7410;SDS011;3747;48.628;9.058;2023-04-03T07:54:52;2.17;;;1.97;;
7410;SDS011;3747;48.628;9.058;2023-04-03T07:57:18;2.17;;;1.40;;
7410;SDS011;3747;48.628;9.058;2023-04-03T07:59:45;1.93;;;1.73;;
7410;SDS011;3747;48.628;9.058;2023-04-03T08:02:12;2.00;;;1.80;;
7410;SDS011;3747;48.628;9.058;2023-04-03T08:04:39;2.37;;;1.77;;
7410;SDS011;3747;48.628;9.058;2023-04-03T08:07:08;2.33;;;2.03;;
7410;SDS011;3747;48.628;9.058;2023-04-03T08:09:35;1.40;;;1.30;;
7410;SDS011;3747;48.628;9.058;2023-04-03T08:12:01;2.53;;;1.70;;
7410;SDS011;3747;48.628;9.058;2023-04-03T08:14:30;1.83;;;1.73;;
7410;SDS011;3747;48.628;9.058;2023-04-03T08:16:59;3.63;;;1.83;;
7410;SDS011;3747;48.628;9.058;2023-04-03T08:19:26;5.13;;;1.83;;
7410;SDS011;3747;48.628;9.058;2023-04-03T08:21:53;3.47;;;2.10;;
7410;SDS011;3747;48.628;9.058;2023-04-03T08:24:22;2.23;;;1.73;;
7410;SDS011;3747;48.628;9.058;2023-04-03T08:26:48;1.77;;;1.67;;
7410;SDS011;3747;48.628;9.058;2023-04-03T08:29:15;1.77;;;1.67;;
7410;SDS011;3747;48.628;9.058;2023-04-03T08:31:42;3.67;;;1.70;;
7410;SDS011;3747;48.628;9.058;2023-04-03T08:34:09;3.33;;;1.83;;
7410;SDS011;3747;48.628;9.058;2023-04-03T08:36:36;2.47;;;2.00;;
7410;SDS011;3747;48.628;9.058;2023-04-03T08:39:03;3.10;;;1.97;;
7410;SDS011;3747;48.628;9.058;2023-04-03T08:41:33;2.37;;;1.80;;
7410;SDS011;3747;48.628;9.058;2023-04-03T08:44:02;2.93;;;2.03;;
7410;SDS011;3747;48.628;9.058;2023-04-03T08:46:45;2.87;;;1.93;;
7410;SDS011;3747;48.628;9.058;2023-04-03T08:49:23;4.27;;;3.27;;
7410;SDS011;3747;48.628;9.058;2023-04-03T08:51:56;3.37;;;2.37;;
7410;SDS011;3747;48.628;9.058;2023-04-03T08:54:28;2.60;;;2.13;;
7410;SDS011;3747;48.628;9.058;2023-04-03T08:56:58;2.47;;;2.27;;
7410;SDS011;3747;48.628;9.058;2023-04-03T08:59:28;8.40;;;2.77;;
7410;SDS011;3747;48.628;9.058;2023-04-03T09:01:58;5.57;;;2.00;;
7410;SDS011;3747;48.628;9.058;2023-04-03T09:04:31;7.77;;;2.57;;
7410;SDS011;3747;48.628;9.058;2023-04-03T09:07:02;2.63;;;2.00;;
7410;SDS011;3747;48.628;9.058;2023-04-03T09:09:34;2.67;;;2.40;;
7410;SDS011;3747;48.628;9.058;2023-04-03T09:12:10;4.33;;;2.13;;
7410;SDS011;3747;48.628;9.058;2023-04-03T09:14:43;2.37;;;1.90;;
7410;SDS011;3747;48.628;9.058;2023-04-03T09:17:21;4.27;;;2.60;;
7410;SDS011;3747;48.628;9.058;2023-04-03T09:19:58;4.20;;;2.93;;
7410;SDS011;3747;48.628;9.058;2023-04-03T09:22:36;3.23;;;2.40;;
7410;SDS011;3747;48.628;9.058;2023-04-03T09:25:09;2.97;;;2.10;;
7410;SDS011;3747;48.628;9.058;2023-04-03T09:27:40;3.87;;;2.30;;
7410;SDS011;3747;48.628;9.058;2023-04-03T09:30:11;2.73;;;1.90;;
7410;SDS011;3747;48.628;9.058;2023-04-03T09:32:40;2.03;;;1.90;;
7410;SDS011;3747;48.628;9.058;2023-04-03T09:35:14;2.10;;;2.00;;
7410;SDS011;3747;48.628;9.058;2023-04-03T09:37:45;3.37;;;2.10;;
7410;SDS011;3747;48.628;9.058;2023-04-03T09:40:33;3.73;;;2.10;;
7410;SDS011;3747;48.628;9.058;2023-04-03T09:45:49;3.53;;;1.83;;
7410;SDS011;3747;48.628;9.058;2023-04-03T09:48:17;1.93;;;1.80;;
7410;SDS011;3747;48.628;9.058;2023-04-03T09:50:53;3.00;;;2.30;;
7410;SDS011;3747;48.628;9.058;2023-04-03T09:53:31;3.47;;;2.20;;
7410;SDS011;3747;48.628;9.058;2023-04-03T09:56:00;2.60;;;1.73;;
7410;SDS011;3747;48.628;9.058;2023-04-03T09:58:31;2.27;;;2.07;;
7410;SDS011;3747;48.628;9.058;2023-04-03T10:01:01;3.10;;;2.03;;
7410;SDS011;3747;48.628;9.058;2023-04-03T10:03:29;2.03;;;1.70;;
7410;SDS011;3747;48.628;9.058;2023-04-03T10:05:58;2.37;;;1.77;;
7410;SDS011;3747;48.628;9.058;2023-04-03T10:08:27;2.07;;;1.97;;
7410;SDS011;3747;48.628;9.058;2023-04-03T10:11:05;2.60;;;2.20;;
7410;SDS011;3747;48.628;9.058;2023-04-03T10:13:36;2.47;;;1.73;;
7410;SDS011;3747;48.628;9.058;2023-04-03T10:16:16;2.00;;;1.60;;
7410;SDS011;3747;48.628;9.058;2023-04-03T10:18:46;3.67;;;1.83;;
7410;SDS011;3747;48.628;9.058;2023-04-03T10:21:20;3.80;;;1.70;;
7410;SDS011;3747;48.628;9.058;2023-04-03T10:24:00;2.93;;;1.73;;
7410;SDS011;3747;48.628;9.058;2023-04-03T10:26:36;1.70;;;1.60;;
7410;SDS011;3747;48.628;9.058;2023-04-03T10:29:15;2.80;;;2.60;;
7410;SDS011;3747;48.628;9.058;2023-04-03T10:31:59;5.37;;;3.97;;
7410;SDS011;3747;48.628;9.058;2023-04-03T10:34:37;2.37;;;2.10;;
7410;SDS011;3747;48.628;9.058;2023-04-03T10:37:09;2.37;;;2.17;;
7410;SDS011;3747;48.628;9.058;2023-04-03T10:39:44;2.20;;;2.00;;
7410;SDS011;3747;48.628;9.058;2023-04-03T10:42:18;2.13;;;1.40;;
7410;SDS011;3747;48.628;9.058;2023-04-03T10:44:55;3.37;;;1.70;;
7410;SDS011;3747;48.628;9.058;2023-04-03T10:47:43;2.07;;;1.60;;
7410;SDS011;3747;48.628;9.058;2023-04-03T10:50:26;3.47;;;1.83;;
7410;SDS011;3747;48.628;9.058;2023-04-03T10:53:03;3.00;;;1.57;;
7410;SDS011;3747;48.628;9.058;2023-04-03T10:55:36;2.20;;;1.47;;
7410;SDS011;3747;48.628;9.058;2023-04-03T10:58:05;3.20;;;2.00;;
7410;SDS011;3747;48.628;9.058;2023-04-03T11:00:38;4.80;;;1.70;;
7410;SDS011;3747;48.628;9.058;2023-04-03T11:03:09;3.20;;;1.90;;
7410;SDS011;3747;48.628;9.058;2023-04-03T11:05:40;2.40;;;1.60;;
7410;SDS011;3747;48.628;9.058;2023-04-03T11:08:11;3.40;;;1.70;;
7410;SDS011;3747;48.628;9.058;2023-04-03T11:10:48;2.30;;;1.40;;
7410;SDS011;3747;48.628;9.058;2023-04-03T11:13:17;3.57;;;2.00;;
7410;SDS011;3747;48.628;9.058;2023-04-03T11:15:49;1.80;;;1.50;;
7410;SDS011;3747;48.628;9.058;2023-04-03T11:18:19;3.23;;;1.60;;
7410;SDS011;3747;48.628;9.058;2023-04-03T11:20:50;2.60;;;1.50;;
7410;SDS011;3747;48.628;9.058;2023-04-03T11:23:26;1.90;;;1.50;;
7410;SDS011;3747;48.628;9.058;2023-04-03T11:25:56;2.60;;;1.47;;
7410;SDS011;3747;48.628;9.058;2023-04-03T11:28:30;1.30;;;1.20;;
7410;SDS011;3747;48.628;9.058;2023-04-03T11:30:59;2.30;;;1.40;;
7410;SDS011;3747;48.628;9.058;2023-04-03T11:33:37;1.70;;;1.60;;
7410;SDS011;3747;48.628;9.058;2023-04-03T11:36:18;1.30;;;1.20;;
7410;SDS011;3747;48.628;9.058;2023-04-03T11:38:47;1.97;;;1.43;;
7410;SDS011;3747;48.628;9.058;2023-04-03T11:41:20;3.30;;;1.50;;
7410;SDS011;3747;48.628;9.058;2023-04-03T11:43:55;1.83;;;1.70;;
7410;SDS011;3747;48.628;9.058;2023-04-03T11:58:27;2.00;;;1.80;;
7410;SDS011;3747;48.628;9.058;2023-04-03T12:00:56;2.20;;;1.80;;
7410;SDS011;3747;48.628;9.058;2023-04-03T12:06:47;1.93;;;1.53;;
7410;SDS011;3747;48.628;9.058;2023-04-03T12:09:28;4.13;;;1.60;;
7410;SDS011;3747;48.628;9.058;2023-04-03T12:11:59;2.30;;;1.90;;
7410;SDS011;3747;48.628;9.058;2023-04-03T12:14:27;1.83;;;1.17;;
7410;SDS011;3747;48.628;9.058;2023-04-03T12:16:55;2.60;;;1.30;;
7410;SDS011;3747;48.628;9.058;2023-04-03T12:19:32;1.60;;;1.40;;
7410;SDS011;3747;48.628;9.058;2023-04-03T12:24:48;1.53;;;1.43;;
7410;SDS011;3747;48.628;9.058;2023-04-03T12:27:27;3.57;;;1.87;;
7410;SDS011;3747;48.628;9.058;2023-04-03T12:30:07;1.70;;;1.50;;
7410;SDS011;3747;48.628;9.058;2023-04-03T12:32:43;2.10;;;1.90;;
7410;SDS011;3747;48.628;9.058;2023-04-03T12:35:24;1.70;;;1.60;;
7410;SDS011;3747;48.628;9.058;2023-04-03T12:38:01;3.13;;;2.30;;
7410;SDS011;3747;48.628;9.058;2023-04-03T12:40:58;4.83;;;2.47;;
7410;SDS011;3747;48.628;9.058;2023-04-03T12:43:46;1.77;;;1.50;;
7410;SDS011;3747;48.628;9.058;2023-04-03T12:46:26;2.60;;;2.40;;
7410;SDS011;3747;48.628;9.058;2023-04-03T12:48:59;2.83;;;2.27;;
7410;SDS011;3747;48.628;9.058;2023-04-03T12:51:26;3.27;;;1.30;;
7410;SDS011;3747;48.628;9.058;2023-04-03T12:54:02;2.70;;;1.40;;
7410;SDS011;3747;48.628;9.058;2023-04-03T12:56:38;10.00;;;5.37;;
7410;SDS011;3747;48.628;9.058;2023-04-03T12:59:15;6.13;;;3.83;;
7410;SDS011;3747;48.628;9.058;2023-04-03T13:01:43;3.17;;;2.00;;
7410;SDS011;3747;48.628;9.058;2023-04-03T13:04:10;1.83;;;1.73;;
7410;SDS011;3747;48.628;9.058;2023-04-03T13:06:39;1.90;;;1.30;;
7410;SDS011;3747;48.628;9.058;2023-04-03T13:09:16;2.60;;;2.10;;
7410;SDS011;3747;48.628;9.058;2023-04-03T13:11:47;2.53;;;1.83;;
7410;SDS011;3747;48.628;9.058;2023-04-03T13:14:18;2.93;;;2.03;;
7410;SDS011;3747;48.628;9.058;2023-04-03T13:16:52;1.60;;;1.50;;
7410;SDS011;3747;48.628;9.058;2023-04-03T13:19:20;4.47;;;2.10;;
7410;SDS011;3747;48.628;9.058;2023-04-03T13:21:49;2.77;;;1.70;;
7410;SDS011;3747;48.628;9.058;2023-04-03T13:24:24;3.67;;;1.80;;
7410;SDS011;3747;48.628;9.058;2023-04-03T13:26:51;1.23;;;1.13;;
7410;SDS011;3747;48.628;9.058;2023-04-03T13:29:21;1.73;;;1.40;;
7410;SDS011;3747;48.628;9.058;2023-04-03T13:31:52;1.40;;;1.30;;
7410;SDS011;3747;48.628;9.058;2023-04-03T13:34:19;3.43;;;1.40;;
7410;SDS011;3747;48.628;9.058;2023-04-03T13:36:54;3.10;;;1.20;;
7410;SDS011;3747;48.628;9.058;2023-04-03T13:39:25;1.90;;;1.47;;
7410;SDS011;3747;48.628;9.058;2023-04-03T13:42:00;2.70;;;1.30;;
7410;SDS011;3747;48.628;9.058;2023-04-03T13:44:40;1.37;;;1.23;;
7410;SDS011;3747;48.628;9.058;2023-04-03T13:47:17;4.10;;;1.33;;
7410;SDS011;3747;48.628;9.058;2023-04-03T13:49:58;5.13;;;1.70;;
7410;SDS011;3747;48.628;9.058;2023-04-03T13:52:27;2.23;;;1.23;;
7410;SDS011;3747;48.628;9.058;2023-04-03T13:54:57;1.60;;;1.40;;
7410;SDS011;3747;48.628;9.058;2023-04-03T13:57:26;2.20;;;1.37;;
7410;SDS011;3747;48.628;9.058;2023-04-03T13:59:54;7.90;;;1.90;;
7410;SDS011;3747;48.628;9.058;2023-04-03T14:02:21;2.10;;;1.50;;
7410;SDS011;3747;48.628;9.058;2023-04-03T14:04:56;2.97;;;1.90;;
7410;SDS011;3747;48.628;9.058;2023-04-03T14:07:26;2.47;;;1.60;;
7410;SDS011;3747;48.628;9.058;2023-04-03T14:09:54;2.13;;;1.60;;
7410;SDS011;3747;48.628;9.058;2023-04-03T14:12:25;2.00;;;1.37;;
7410;SDS011;3747;48.628;9.058;2023-04-03T14:14:53;2.40;;;1.70;;
7410;SDS011;3747;48.628;9.058;2023-04-03T14:17:21;1.53;;;1.40;;
7410;SDS011;3747;48.628;9.058;2023-04-03T14:19:50;2.20;;;1.30;;
7410;SDS011;3747;48.628;9.058;2023-04-03T14:22:20;1.80;;;1.40;;
7410;SDS011;3747;48.628;9.058;2023-04-03T14:24:48;1.30;;;1.20;;
7410;SDS011;3747;48.628;9.058;2023-04-03T14:27:19;2.77;;;1.50;;
7410;SDS011;3747;48.628;9.058;2023-04-03T14:29:49;2.80;;;1.50;;
7410;SDS011;3747;48.628;9.058;2023-04-03T14:32:18;1.50;;;1.40;;
7410;SDS011;3747;48.628;9.058;2023-04-03T14:34:46;3.40;;;1.70;;
7410;SDS011;3747;48.628;9.058;2023-04-03T14:37:15;1.40;;;1.30;;
7410;SDS011;3747;48.628;9.058;2023-04-03T14:39:43;2.60;;;1.60;;
7410;SDS011;3747;48.628;9.058;2023-04-03T14:42:12;3.33;;;1.47;;
7410;SDS011;3747;48.628;9.058;2023-04-03T14:44:40;2.67;;;1.37;;
7410;SDS011;3747;48.628;9.058;2023-04-03T14:47:10;1.60;;;1.50;;
7410;SDS011;3747;48.628;9.058;2023-04-03T14:49:38;1.50;;;1.40;;
7410;SDS011;3747;48.628;9.058;2023-04-03T14:52:05;2.03;;;1.20;;
7410;SDS011;3747;48.628;9.058;2023-04-03T14:54:38;1.43;;;1.30;;
7410;SDS011;3747;48.628;9.058;2023-04-03T14:57:07;3.60;;;1.73;;
7410;SDS011;3747;48.628;9.058;2023-04-03T14:59:37;1.53;;;1.43;;
7410;SDS011;3747;48.628;9.058;2023-04-03T15:02:08;2.60;;;2.03;;
7410;SDS011;3747;48.628;9.058;2023-04-03T15:04:50;1.63;;;1.20;;
7410;SDS011;3747;48.628;9.058;2023-04-03T15:07:17;1.73;;;1.53;;
7410;SDS011;3747;48.628;9.058;2023-04-03T15:09:44;2.00;;;1.37;;
7410;SDS011;3747;48.628;9.058;2023-04-03T15:12:10;2.00;;;1.30;;
7410;SDS011;3747;48.628;9.058;2023-04-03T15:14:38;2.57;;;1.53;;
7410;SDS011;3747;48.628;9.058;2023-04-03T15:17:05;3.87;;;1.97;;
7410;SDS011;3747;48.628;9.058;2023-04-03T15:19:35;3.47;;;2.20;;
7410;SDS011;3747;48.628;9.058;2023-04-03T15:22:03;1.57;;;1.30;;
7410;SDS011;3747;48.628;9.058;2023-04-03T15:24:30;2.07;;;1.33;;
7410;SDS011;3747;48.628;9.058;2023-04-03T15:26:57;2.23;;;1.57;;
7410;SDS011;3747;48.628;9.058;2023-04-03T15:29:26;2.80;;;1.33;;
7410;SDS011;3747;48.628;9.058;2023-04-03T15:31:53;1.60;;;1.50;;
7410;SDS011;3747;48.628;9.058;2023-04-03T15:34:20;1.93;;;1.50;;
7410;SDS011;3747;48.628;9.058;2023-04-03T15:36:48;2.03;;;1.33;;
7410;SDS011;3747;48.628;9.058;2023-04-03T15:39:17;4.10;;;1.63;;
7410;SDS011;3747;48.628;9.058;2023-04-03T15:41:44;1.67;;;1.50;;
7410;SDS011;3747;48.628;9.058;2023-04-03T15:44:11;3.03;;;1.93;;
7410;SDS011;3747;48.628;9.058;2023-04-03T15:46:38;2.13;;;1.53;;
7410;SDS011;3747;48.628;9.058;2023-04-03T15:49:06;2.87;;;2.13;;